createdAt,value
2017-11-30T00:01:12.325Z,100113
2017-11-30T00:03:41.522Z,100115
2017-11-30T00:06:10.688Z,100115
2017-11-30T00:08:39.827Z,100107
2017-11-30T00:11:09.757Z,100105
2017-11-30T00:13:40.054Z,100098
2017-11-30T00:16:09.263Z,100102
2017-11-30T00:18:38.484Z,100104
2017-11-30T00:21:07.856Z,100097
2017-11-30T00:23:37.809Z,100102
2017-11-30T00:26:06.969Z,100106
2017-11-30T00:28:36.997Z,100101
2017-11-30T00:31:06.100Z,100101
2017-11-30T00:33:35.246Z,100101
2017-11-30T00:36:04.433Z,100099
2017-11-30T00:38:33.523Z,100095
2017-11-30T00:41:02.670Z,100088
2017-11-30T00:43:33.097Z,100082
2017-11-30T00:46:02.223Z,100084
2017-11-30T00:48:32.198Z,100084
2017-11-30T00:51:01.496Z,100086
2017-11-30T00:53:30.649Z,100082
2017-11-30T00:55:59.744Z,100083
2017-11-30T00:58:28.867Z,100082
2017-11-30T01:00:57.966Z,100083
2017-11-30T01:03:27.059Z,100087
2017-11-30T01:05:56.211Z,100083
2017-11-30T01:08:26.081Z,100082
2017-11-30T01:10:55.184Z,100081
2017-11-30T01:13:24.342Z,100078
2017-11-30T01:15:53.442Z,100079
2017-11-30T01:18:22.571Z,100074
2017-11-30T01:20:52.916Z,100074
2017-11-30T01:23:23.341Z,100074
2017-11-30T01:25:52.463Z,100068
2017-11-30T01:28:22.454Z,100070
2017-11-30T01:30:51.552Z,100062
2017-11-30T01:33:20.921Z,100056
2017-11-30T01:35:50.863Z,100053
2017-11-30T01:38:20.028Z,100060
2017-11-30T01:40:49.128Z,100053
2017-11-30T01:43:18.654Z,100060
2017-11-30T01:45:47.769Z,100060
2017-11-30T01:48:16.882Z,100063
2017-11-30T01:50:46.081Z,100058
2017-11-30T01:53:15.191Z,100059
2017-11-30T01:55:44.363Z,100055
2017-11-30T01:58:13.529Z,100061
2017-11-30T02:00:42.780Z,100058
2017-11-30T02:03:11.975Z,100060
2017-11-30T02:05:41.254Z,100056
2017-11-30T02:08:10.403Z,100058
2017-11-30T02:10:39.925Z,100058
2017-11-30T02:13:09.078Z,100054
2017-11-30T02:15:38.197Z,100059
2017-11-30T02:18:07.285Z,100043
2017-11-30T02:20:37.798Z,100043
2017-11-30T02:23:06.910Z,100033
2017-11-30T02:25:36.040Z,100041
2017-11-30T02:28:05.257Z,100040
2017-11-30T02:30:34.358Z,100042
2017-11-30T02:33:03.526Z,100031
2017-11-30T02:35:34.009Z,100028
2017-11-30T02:38:03.742Z,100024
2017-11-30T02:40:32.970Z,100031
2017-11-30T02:43:02.198Z,100027
2017-11-30T02:45:32.097Z,100023
2017-11-30T02:48:01.283Z,100023
2017-11-30T02:50:31.225Z,100021
2017-11-30T02:53:00.336Z,100017
2017-11-30T02:55:29.514Z,100019
2017-11-30T02:57:58.734Z,100016
2017-11-30T03:00:27.855Z,100008
2017-11-30T03:02:56.991Z,100020
2017-11-30T03:05:27.781Z,100016
2017-11-30T03:07:56.967Z,100014
2017-11-30T03:10:26.860Z,100016
2017-11-30T03:12:55.980Z,100015
2017-11-30T03:15:25.062Z,100017
2017-11-30T03:17:54.157Z,100014
2017-11-30T03:20:23.681Z,100014
2017-11-30T03:22:52.769Z,100016
2017-11-30T03:25:21.860Z,100019
2017-11-30T03:27:52.238Z,100017
2017-11-30T03:30:21.366Z,100017
2017-11-30T03:32:51.248Z,100018
2017-11-30T03:35:21.178Z,100014
2017-11-30T03:37:51.490Z,100011
2017-11-30T03:40:20.629Z,100008
2017-11-30T03:42:50.059Z,100010
2017-11-30T03:45:19.167Z,100009
2017-11-30T03:47:48.315Z,100002
2017-11-30T03:50:17.529Z,100000
2017-11-30T03:52:46.733Z,100005
2017-11-30T03:55:15.821Z,100007
2017-11-30T03:57:45.007Z,100007
2017-11-30T04:00:14.149Z,100011
2017-11-30T04:02:43.293Z,100010
2017-11-30T04:05:12.516Z,100003
2017-11-30T04:07:41.705Z,99998
2017-11-30T04:10:10.873Z,100003
2017-11-30T04:12:40.181Z,99998
2017-11-30T04:15:09.293Z,100002
2017-11-30T04:17:38.470Z,100006
2017-11-30T04:20:07.609Z,100009
2017-11-30T04:22:36.731Z,100009
2017-11-30T04:25:05.829Z,100004
2017-11-30T04:27:34.998Z,100007
2017-11-30T04:30:04.146Z,100004
2017-11-30T04:32:33.236Z,100008
2017-11-30T04:35:02.478Z,100010
2017-11-30T04:37:31.584Z,100004
2017-11-30T04:40:09.191Z,99998
2017-11-30T04:42:38.285Z,99995
2017-11-30T04:45:07.372Z,99993
2017-11-30T04:47:37.340Z,99995
2017-11-30T04:50:06.430Z,99998
2017-11-30T04:52:35.524Z,99999
2017-11-30T04:55:05.796Z,99991
2017-11-30T04:57:34.903Z,99988
2017-11-30T05:00:03.992Z,99998
2017-11-30T05:02:33.226Z,100000
2017-11-30T05:05:02.359Z,99999
2017-11-30T05:07:31.445Z,100000
2017-11-30T05:10:00.750Z,100004
2017-11-30T05:12:29.925Z,99998
2017-11-30T05:14:59.843Z,100001
2017-11-30T05:17:30.643Z,99999
2017-11-30T05:19:59.714Z,99997
2017-11-30T05:22:29.616Z,100001
2017-11-30T05:24:58.791Z,99997
2017-11-30T05:27:27.942Z,100001
2017-11-30T05:29:57.803Z,99996
2017-11-30T05:32:27.013Z,99997
2017-11-30T05:34:56.109Z,99997
2017-11-30T05:37:25.945Z,99996
2017-11-30T05:39:55.879Z,99993
2017-11-30T05:42:25.065Z,99999
2017-11-30T05:44:54.945Z,100000
2017-11-30T05:47:24.108Z,100004
2017-11-30T05:49:53.191Z,100005
2017-11-30T05:52:22.308Z,100002
2017-11-30T05:54:52.682Z,100001
2017-11-30T05:57:21.782Z,99998
2017-11-30T05:59:51.276Z,99993
2017-11-30T06:02:21.022Z,99992
2017-11-30T06:04:50.221Z,99989
2017-11-30T06:07:20.090Z,99998
2017-11-30T06:09:49.254Z,99999
2017-11-30T06:12:18.416Z,99997
2017-11-30T06:14:47.535Z,99993
2017-11-30T06:17:17.457Z,99995
2017-11-30T06:19:46.639Z,99990
2017-11-30T06:22:15.809Z,99984
2017-11-30T06:24:46.391Z,99993
2017-11-30T06:27:15.644Z,99994
2017-11-30T06:29:45.506Z,99993
2017-11-30T06:32:14.743Z,99989
2017-11-30T06:34:43.893Z,99987
2017-11-30T06:37:13.128Z,99989
2017-11-30T06:39:43.103Z,99990
2017-11-30T06:42:12.218Z,99989
2017-11-30T06:44:42.158Z,99990
2017-11-30T06:47:12.679Z,99990
2017-11-30T06:49:41.867Z,99991
2017-11-30T06:52:11.034Z,99989
2017-11-30T06:54:40.243Z,99990
2017-11-30T06:57:10.309Z,99996
2017-11-30T06:59:39.848Z,99997
2017-11-30T07:02:09.823Z,99997
2017-11-30T07:04:38.980Z,100001
2017-11-30T07:07:08.271Z,100005
2017-11-30T07:09:38.142Z,100006
2017-11-30T07:12:07.260Z,100009
2017-11-30T07:14:36.438Z,100007
2017-11-30T07:17:07.025Z,100004
2017-11-30T07:19:36.165Z,100015
2017-11-30T07:22:06.075Z,100016
2017-11-30T07:24:36.025Z,100014
2017-11-30T07:27:05.282Z,100016
2017-11-30T07:29:34.467Z,100020
2017-11-30T07:32:04.960Z,100018
2017-11-30T07:34:34.056Z,100013
2017-11-30T07:37:03.234Z,100013
2017-11-30T07:39:33.152Z,100012
2017-11-30T07:42:02.353Z,100013
2017-11-30T07:44:32.281Z,100010
2017-11-30T07:47:02.037Z,100019
2017-11-30T07:49:31.193Z,100016
2017-11-30T07:52:01.082Z,100017
2017-11-30T07:54:30.292Z,100019
2017-11-30T07:56:59.432Z,100020
2017-11-30T07:59:28.559Z,100021
2017-11-30T08:01:58.508Z,100023
2017-11-30T08:04:28.461Z,100024
2017-11-30T08:06:57.604Z,100026
2017-11-30T08:09:27.524Z,100024
2017-11-30T08:11:56.639Z,100023
2017-11-30T08:14:25.849Z,100023
2017-11-30T08:16:55.191Z,100017
2017-11-30T08:19:24.295Z,100017
2017-11-30T08:21:53.417Z,100025
2017-11-30T08:24:22.685Z,100022
2017-11-30T08:26:51.890Z,100026
2017-11-30T08:29:21.023Z,100029
2017-11-30T08:31:50.235Z,100034
2017-11-30T08:34:19.409Z,100031
2017-11-30T08:36:48.578Z,100027
2017-11-30T08:39:17.971Z,100028
2017-11-30T08:41:47.206Z,100027
2017-11-30T08:44:17.194Z,100025
2017-11-30T08:46:46.493Z,100025
2017-11-30T08:49:15.896Z,100025
2017-11-30T08:51:45.127Z,100025
2017-11-30T08:54:14.392Z,100028
2017-11-30T08:56:43.829Z,100029
2017-11-30T08:59:13.029Z,100034
2017-11-30T09:01:42.245Z,100031
2017-11-30T09:04:11.529Z,100032
2017-11-30T09:06:41.052Z,100029
2017-11-30T09:09:10.317Z,100023
2017-11-30T09:11:39.777Z,100026
2017-11-30T09:14:08.965Z,100026
2017-11-30T09:16:39.040Z,100029
2017-11-30T09:19:08.280Z,100033
2017-11-30T09:21:37.408Z,100031
2017-11-30T09:24:06.672Z,100028
2017-11-30T09:26:35.768Z,100027
2017-11-30T09:29:05.783Z,100021
2017-11-30T09:31:35.680Z,100023
2017-11-30T09:34:04.788Z,100022
2017-11-30T09:36:34.789Z,100026
2017-11-30T09:39:04.086Z,100024
2017-11-30T09:41:33.204Z,100022
2017-11-30T09:44:02.299Z,100018
2017-11-30T09:46:32.228Z,100018
2017-11-30T09:49:01.330Z,100026
2017-11-30T09:51:30.459Z,100025
2017-11-30T09:53:59.570Z,100020
2017-11-30T09:56:28.763Z,100021
2017-11-30T09:58:57.847Z,100017
2017-11-30T10:01:27.155Z,100019
2017-11-30T10:03:56.297Z,100023
2017-11-30T10:06:25.475Z,100017
2017-11-30T10:08:55.594Z,100017
2017-11-30T10:11:24.748Z,100022
2017-11-30T10:13:53.864Z,100020
2017-11-30T10:16:24.041Z,100015
2017-11-30T10:18:54.042Z,100016
2017-11-30T10:21:23.173Z,100018
2017-11-30T10:23:52.830Z,100018
2017-11-30T10:26:22.633Z,100023
2017-11-30T10:28:51.758Z,100022
2017-11-30T10:31:21.655Z,100026
2017-11-30T10:33:50.859Z,100028
2017-11-30T10:36:19.985Z,100029
2017-11-30T10:38:49.214Z,100029
2017-11-30T10:41:18.326Z,100023
2017-11-30T10:43:48.263Z,100022
2017-11-30T10:46:18.463Z,100021
2017-11-30T10:48:47.692Z,100020
2017-11-30T10:51:16.814Z,100018
2017-11-30T10:53:46.877Z,100016
2017-11-30T10:56:16.178Z,100017
2017-11-30T10:58:46.029Z,100017
2017-11-30T11:01:16.611Z,100013
2017-11-30T11:03:46.560Z,100013
2017-11-30T11:06:15.918Z,100012
2017-11-30T11:08:46.044Z,100009
2017-11-30T11:11:15.217Z,100013
2017-11-30T11:13:44.426Z,100013
2017-11-30T11:16:14.437Z,100009
2017-11-30T11:18:43.753Z,100006
2017-11-30T11:21:13.564Z,100002
2017-11-30T11:23:43.928Z,100005
2017-11-30T11:26:13.840Z,100008
2017-11-30T11:28:43.323Z,100004
2017-11-30T11:31:13.424Z,100004
2017-11-30T11:33:43.329Z,100003
2017-11-30T11:36:12.444Z,99999
2017-11-30T11:38:42.192Z,100006
2017-11-30T11:41:11.351Z,100011
2017-11-30T11:43:41.597Z,100004
2017-11-30T11:46:10.830Z,100001
2017-11-30T11:48:40.746Z,100002
2017-11-30T11:51:09.890Z,100002
2017-11-30T11:53:39.139Z,100006
2017-11-30T11:56:08.324Z,100006
2017-11-30T11:58:37.447Z,100005
2017-11-30T12:01:06.626Z,100005
2017-11-30T12:03:35.850Z,100007
2017-11-30T12:06:04.947Z,100003
2017-11-30T12:08:34.165Z,100005
2017-11-30T12:11:03.281Z,100004
2017-11-30T12:13:32.437Z,99997
2017-11-30T12:16:02.380Z,99998
2017-11-30T12:18:31.574Z,99999
2017-11-30T12:21:00.736Z,100009
2017-11-30T12:23:29.881Z,100006
2017-11-30T12:25:58.973Z,100007
2017-11-30T12:28:28.077Z,100010
2017-11-30T12:30:57.220Z,100011
2017-11-30T12:33:26.386Z,100012
2017-11-30T12:36:11.976Z,100009
2017-11-30T12:38:42.126Z,100018
2017-11-30T12:41:12.313Z,100016
2017-11-30T12:43:42.644Z,100009
2017-11-30T12:46:12.690Z,100018
2017-11-30T12:48:42.888Z,100023
2017-11-30T12:51:12.109Z,100022
2017-11-30T12:53:42.411Z,100020
2017-11-30T12:56:11.859Z,100032
2017-11-30T12:58:41.908Z,100029
2017-11-30T13:01:11.103Z,100024
2017-11-30T13:03:41.806Z,100025
2017-11-30T13:06:11.402Z,100029
2017-11-30T13:08:41.492Z,100031
2017-11-30T13:11:10.728Z,100029
2017-11-30T13:13:40.581Z,100025
2017-11-30T13:16:09.782Z,100025
2017-11-30T13:18:39.006Z,100029
2017-11-30T13:21:08.270Z,100028
2017-11-30T13:23:37.650Z,100031
2017-11-30T13:26:07.098Z,100035
2017-11-30T13:28:36.216Z,100033
2017-11-30T13:31:05.307Z,100035
2017-11-30T13:33:34.562Z,100036
2017-11-30T13:36:03.689Z,100037
2017-11-30T13:38:32.826Z,100038
2017-11-30T13:41:02.029Z,100039
2017-11-30T13:43:31.305Z,100039
2017-11-30T13:46:00.398Z,100047
2017-11-30T13:48:29.596Z,100044
2017-11-30T13:50:58.724Z,100045
2017-11-30T13:53:28.611Z,100050
2017-11-30T13:55:57.750Z,100050
2017-11-30T13:58:26.905Z,100049
2017-11-30T14:00:56.173Z,100054
2017-11-30T14:03:25.366Z,100061
2017-11-30T14:05:54.478Z,100059
2017-11-30T14:08:23.567Z,100063
2017-11-30T14:10:54.305Z,100065
2017-11-30T14:13:23.383Z,100069
2017-11-30T14:15:52.513Z,100066
2017-11-30T14:18:21.635Z,100067
2017-11-30T14:20:50.821Z,100077
2017-11-30T14:23:20.006Z,100078
2017-11-30T14:25:49.777Z,100085
2017-11-30T14:28:19.146Z,100085
2017-11-30T14:30:49.098Z,100084
2017-11-30T14:33:18.317Z,100085
2017-11-30T14:35:47.543Z,100094
2017-11-30T14:38:16.709Z,100096
2017-11-30T14:40:46.654Z,100098
2017-11-30T14:43:15.776Z,100099
2017-11-30T14:45:44.933Z,100105
2017-11-30T14:48:14.063Z,100105
2017-11-30T14:50:44.472Z,100111
2017-11-30T14:53:13.854Z,100113
2017-11-30T14:55:43.163Z,100118
2017-11-30T14:58:12.457Z,100124
2017-11-30T15:00:41.639Z,100119
2017-11-30T15:03:10.793Z,100122
2017-11-30T15:05:39.961Z,100124
2017-11-30T15:08:10.033Z,100128
2017-11-30T15:10:41.091Z,100126
2017-11-30T15:13:10.343Z,100130
2017-11-30T15:15:40.341Z,100128
2017-11-30T15:18:10.298Z,100137
2017-11-30T15:20:40.011Z,100132
2017-11-30T15:23:09.128Z,100130
2017-11-30T15:25:38.353Z,100139
2017-11-30T15:28:07.545Z,100138
2017-11-30T15:30:37.791Z,100141
2017-11-30T15:33:07.047Z,100143
2017-11-30T15:35:36.268Z,100146
2017-11-30T15:38:05.366Z,100147
2017-11-30T15:40:34.928Z,100150
2017-11-30T15:43:04.058Z,100156
2017-11-30T15:45:34.002Z,100155
2017-11-30T15:48:04.787Z,100154
2017-11-30T15:50:33.934Z,100157
2017-11-30T15:53:03.864Z,100160
2017-11-30T15:55:34.462Z,100159
2017-11-30T15:58:03.932Z,100163
2017-11-30T16:00:33.037Z,100167
2017-11-30T16:03:02.263Z,100169
2017-11-30T16:05:32.155Z,100171
2017-11-30T16:08:01.329Z,100171
2017-11-30T16:10:30.504Z,100178
2017-11-30T16:12:59.597Z,100178
2017-11-30T16:15:29.497Z,100180
2017-11-30T16:17:58.653Z,100188
2017-11-30T16:20:27.750Z,100186
2017-11-30T16:22:56.848Z,100188
2017-11-30T16:25:26.462Z,100195
2017-11-30T16:27:55.611Z,100201
2017-11-30T16:30:25.517Z,100200
2017-11-30T16:32:54.772Z,100203
2017-11-30T16:35:23.886Z,100202
2017-11-30T16:37:53.786Z,100206
2017-11-30T16:40:24.004Z,100204
2017-11-30T16:42:53.885Z,100209
2017-11-30T16:45:23.064Z,100210
2017-11-30T16:47:53.729Z,100213
2017-11-30T16:50:22.877Z,100215
2017-11-30T16:52:52.015Z,100211
2017-11-30T16:55:22.424Z,100218
2017-11-30T16:57:51.621Z,100224
2017-11-30T17:00:21.113Z,100223
2017-11-30T17:02:50.811Z,100225
2017-11-30T17:05:21.978Z,100228
2017-11-30T17:07:52.613Z,100233
2017-11-30T17:10:22.677Z,100234
2017-11-30T17:12:51.936Z,100242
2017-11-30T17:15:21.561Z,100243
2017-11-30T17:17:51.457Z,100247
2017-11-30T17:20:21.659Z,100246
2017-11-30T17:22:52.311Z,100248
2017-11-30T17:25:22.235Z,100251
2017-11-30T17:27:51.436Z,100250
2017-11-30T17:30:21.031Z,100258
2017-11-30T17:32:51.704Z,100257
2017-11-30T17:35:21.114Z,100262
2017-11-30T17:37:50.539Z,100263
2017-11-30T17:40:20.427Z,100268
2017-11-30T17:42:50.187Z,100266
2017-11-30T17:45:20.569Z,100267
2017-11-30T17:47:49.774Z,100277
2017-11-30T17:50:19.423Z,100275
2017-11-30T17:52:49.319Z,100276
2017-11-30T17:55:18.637Z,100279
2017-11-30T17:57:48.707Z,100278
2017-11-30T18:00:19.614Z,100278
2017-11-30T18:02:48.782Z,100279
2017-11-30T18:05:18.372Z,100282
2017-11-30T18:07:47.707Z,100282
2017-11-30T18:10:17.127Z,100283
2017-11-30T18:12:47.062Z,100279
2017-11-30T18:15:16.405Z,100285
2017-11-30T18:17:46.564Z,100295
2017-11-30T18:20:16.247Z,100293
2017-11-30T18:22:45.543Z,100300
2017-11-30T18:25:14.811Z,100299
2017-11-30T18:27:44.378Z,100303
2017-11-30T18:30:13.710Z,100311
2017-11-30T18:32:42.877Z,100312
2017-11-30T18:35:12.158Z,100317
2017-11-30T18:37:42.358Z,100314
2017-11-30T18:40:11.592Z,100319
2017-11-30T18:42:41.392Z,100322
2017-11-30T18:45:10.680Z,100321
2017-11-30T18:47:40.211Z,100323
2017-11-30T18:50:09.616Z,100332
2017-11-30T18:52:39.735Z,100335
2017-11-30T18:55:11.172Z,100340
2017-11-30T18:57:40.598Z,100343
2017-11-30T19:00:11.130Z,100342
2017-11-30T19:02:41.054Z,100349
2017-11-30T19:05:11.073Z,100347
2017-11-30T19:07:40.411Z,100355
2017-11-30T19:10:09.606Z,100355
2017-11-30T19:12:39.824Z,100358
2017-11-30T19:15:09.156Z,100358
2017-11-30T19:17:38.957Z,100362
2017-11-30T19:20:09.000Z,100370
2017-11-30T19:22:38.382Z,100375
2017-11-30T19:25:08.689Z,100372
2017-11-30T19:27:37.828Z,100379
2017-11-30T19:30:07.124Z,100380
2017-11-30T19:32:36.704Z,100377
2017-11-30T19:35:05.947Z,100381
2017-11-30T19:37:36.843Z,100379
2017-11-30T19:40:07.734Z,100386
2017-11-30T19:42:36.878Z,100389
2017-11-30T19:45:06.815Z,100393
2017-11-30T19:47:36.995Z,100394
2017-11-30T19:50:07.210Z,100398
2017-11-30T19:52:36.331Z,100404
2017-11-30T19:55:05.506Z,100405
2017-11-30T19:57:34.725Z,100404
2017-11-30T20:00:03.886Z,100410
2017-11-30T20:02:33.449Z,100411
2017-11-30T20:05:02.953Z,100416
2017-11-30T20:07:33.498Z,100418
2017-11-30T20:10:03.085Z,100423
2017-11-30T20:12:32.210Z,100430
2017-11-30T20:15:01.572Z,100436
2017-11-30T20:17:31.807Z,100436
2017-11-30T20:20:01.094Z,100438
2017-11-30T20:22:31.155Z,100442
2017-11-30T20:25:00.846Z,100445
2017-11-30T20:27:30.096Z,100445
2017-11-30T20:30:00.421Z,100448
2017-11-30T20:32:29.609Z,100449
2017-11-30T20:34:58.853Z,100442
2017-11-30T20:37:28.267Z,100452
2017-11-30T20:39:57.413Z,100457
2017-11-30T20:42:27.909Z,100461
2017-11-30T20:44:57.049Z,100461
2017-11-30T20:47:27.241Z,100463
2017-11-30T20:49:56.538Z,100465
2017-11-30T20:52:25.836Z,100471
2017-11-30T20:54:55.057Z,100476
2017-11-30T20:57:24.400Z,100469
2017-11-30T20:59:53.642Z,100473
2017-11-30T21:02:23.082Z,100478
2017-11-30T21:04:54.149Z,100478
2017-11-30T21:07:24.483Z,100481
2017-11-30T21:09:54.690Z,100481
2017-11-30T21:12:23.871Z,100491
2017-11-30T21:14:54.603Z,100489
2017-11-30T21:17:23.825Z,100492
2017-11-30T21:19:53.160Z,100495
2017-11-30T21:22:22.658Z,100497
2017-11-30T21:24:51.954Z,100502
2017-11-30T21:27:21.464Z,100509
2017-11-30T21:29:52.107Z,100512
2017-11-30T21:32:22.352Z,100517
2017-11-30T21:34:52.754Z,100517
2017-11-30T21:37:22.195Z,100517
2017-11-30T21:39:51.425Z,100525
2017-11-30T21:42:20.771Z,100523
2017-11-30T21:44:50.059Z,100521
2017-11-30T21:47:19.633Z,100523
2017-11-30T21:49:48.805Z,100522
2017-11-30T21:52:18.697Z,100526
2017-11-30T21:54:48.400Z,100526
2017-11-30T21:57:19.090Z,100531
2017-11-30T21:59:50.656Z,100536
2017-11-30T22:02:20.110Z,100550
2017-11-30T22:04:49.605Z,100549
2017-11-30T22:07:19.640Z,100551
2017-11-30T22:09:48.917Z,100552
2017-11-30T22:12:18.520Z,100551
2017-11-30T22:14:48.609Z,100553
2017-11-30T22:17:17.973Z,100553
2017-11-30T22:19:47.380Z,100555
2017-11-30T22:22:20.387Z,100555
2017-11-30T22:24:49.687Z,100561
2017-11-30T22:27:18.898Z,100560
2017-11-30T22:29:48.266Z,100567
2017-11-30T22:32:17.564Z,100569
2017-11-30T22:34:46.791Z,100578
2017-11-30T22:37:16.807Z,100580
2017-11-30T22:39:46.051Z,100580
2017-11-30T22:42:15.477Z,100578
2017-11-30T22:44:44.683Z,100584
2017-11-30T22:47:14.740Z,100588
2017-11-30T22:49:44.480Z,100588
2017-11-30T22:52:13.928Z,100587
2017-11-30T22:54:43.970Z,100581
2017-11-30T22:57:14.488Z,100583
2017-11-30T22:59:43.912Z,100580
2017-11-30T23:02:13.971Z,100584
2017-11-30T23:04:44.165Z,100591
2017-11-30T23:07:14.184Z,100593
2017-11-30T23:09:43.552Z,100596
2017-11-30T23:12:13.224Z,100595
2017-11-30T23:14:42.645Z,100594
2017-11-30T23:17:12.679Z,100591
2017-11-30T23:19:42.669Z,100600
2017-11-30T23:22:12.267Z,100605
2017-11-30T23:24:42.036Z,100605
2017-11-30T23:27:11.699Z,100606
2017-11-30T23:29:41.040Z,100600
2017-11-30T23:32:10.369Z,100605
2017-11-30T23:34:39.871Z,100608
2017-11-30T23:37:09.093Z,100613
2017-11-30T23:39:38.228Z,100613
2017-11-30T23:42:07.493Z,100620
2017-11-30T23:44:36.694Z,100624
2017-11-30T23:47:06.620Z,100622
2017-11-30T23:49:36.762Z,100620
2017-11-30T23:52:05.892Z,100621
2017-11-30T23:54:36.245Z,100628
2017-11-30T23:57:05.795Z,100632
2017-11-30T23:59:36.859Z,100634
